createdAt,value
2023-04-02T00:01:41.272Z,6.08
2023-04-02T00:04:43.115Z,6.03
2023-04-02T00:07:53.842Z,6.01
2023-04-02T00:11:01.223Z,5.97
2023-04-02T00:14:17.874Z,6.00
2023-04-02T00:17:24.693Z,5.97
2023-04-02T00:20:34.339Z,6.02
2023-04-02T00:23:41.983Z,5.94
2023-04-02T00:26:49.554Z,5.96
2023-04-02T00:29:57.077Z,5.92
2023-04-02T00:32:59.376Z,5.90
2023-04-02T00:36:09.811Z,5.90
2023-04-02T00:39:19.093Z,5.81
2023-04-02T00:42:21.359Z,5.85
2023-04-02T00:45:24.879Z,5.86
2023-04-02T00:48:48.903Z,5.87
2023-04-02T00:51:56.843Z,5.86
2023-04-02T00:55:12.849Z,5.87
2023-04-02T00:58:27.300Z,5.87
2023-04-02T01:01:39.003Z,5.88
2023-04-02T01:04:41.808Z,5.84
2023-04-02T01:08:02.614Z,5.70
2023-04-02T01:11:35.391Z,5.80
2023-04-02T01:14:58.944Z,5.77
2023-04-02T01:18:18.715Z,5.78
2023-04-02T01:21:35.300Z,5.76
2023-04-02T01:24:37.478Z,5.69
2023-04-02T01:27:46.613Z,5.70
2023-04-02T01:30:53.005Z,5.71
2023-04-02T01:34:03.043Z,5.69
2023-04-02T01:37:13.994Z,5.71
2023-04-02T01:40:18.797Z,5.71
2023-04-02T01:44:08.432Z,5.70
2023-04-02T01:47:13.542Z,5.69
2023-04-02T01:50:37.328Z,5.67
2023-04-02T01:53:42.546Z,5.59
2023-04-02T01:56:47.275Z,5.63
2023-04-02T01:59:49.526Z,5.63
2023-04-02T02:02:52.270Z,5.59
2023-04-02T02:05:56.983Z,5.57
2023-04-02T02:09:05.449Z,5.57
2023-04-02T02:12:22.917Z,5.54
2023-04-02T02:15:27.690Z,5.50
2023-04-02T02:18:30.172Z,5.44
2023-04-02T02:21:48.223Z,5.47
2023-04-02T02:24:50.745Z,5.32
2023-04-02T02:28:01.600Z,5.38
2023-04-02T02:31:24.296Z,5.45
2023-04-02T02:34:39.242Z,5.48
2023-04-02T02:37:46.545Z,5.47
2023-04-02T02:40:57.911Z,5.42
2023-04-02T02:44:14.041Z,5.43
2023-04-02T02:47:25.103Z,5.38
2023-04-02T02:50:31.838Z,5.37
2023-04-02T02:53:53.663Z,5.40
2023-04-02T02:57:01.661Z,5.34
2023-04-02T03:00:08.310Z,5.30
2023-04-02T03:03:26.397Z,5.31
2023-04-02T03:06:33.027Z,5.26
2023-04-02T03:09:51.776Z,5.25
2023-04-02T03:13:08.581Z,5.28
2023-04-02T03:16:23.705Z,5.26
2023-04-02T03:19:35.997Z,5.29
2023-04-02T03:23:02.676Z,5.24
2023-04-02T03:26:10.655Z,5.27
2023-04-02T03:29:22.315Z,5.27
2023-04-02T03:32:32.128Z,5.27
2023-04-02T03:35:46.614Z,5.25
2023-04-02T03:39:17.266Z,5.28
2023-04-02T03:42:28.069Z,5.28
2023-04-02T03:45:39.175Z,5.28
2023-04-02T03:48:54.720Z,5.37
2023-04-02T03:52:06.328Z,5.36
2023-04-02T03:55:20.118Z,5.33
2023-04-02T03:58:38.906Z,5.35
2023-04-02T04:01:57.555Z,5.36
2023-04-02T04:05:01.889Z,5.43
2023-04-02T04:08:08.103Z,5.40
2023-04-02T04:11:16.093Z,5.46
2023-04-02T04:14:32.343Z,5.42
2023-04-02T04:17:58.082Z,5.46
2023-04-02T04:21:30.125Z,5.52
2023-04-02T04:24:39.454Z,5.58
2023-04-02T04:27:48.610Z,5.63
2023-04-02T04:31:08.730Z,5.66
2023-04-02T04:34:22.670Z,5.75
2023-04-02T04:37:33.780Z,5.86
2023-04-02T04:40:45.363Z,5.93
2023-04-02T04:43:52.051Z,5.99
2023-04-02T04:47:02.526Z,6.02
2023-04-02T04:50:16.030Z,6.04
2023-04-02T04:53:22.697Z,6.16
2023-04-02T04:56:29.919Z,6.26
2023-04-02T05:00:23.154Z,6.40
2023-04-02T05:03:51.376Z,6.45
2023-04-02T05:07:03.793Z,6.57
2023-04-02T05:10:19.521Z,6.67
2023-04-02T05:13:32.923Z,6.85
2023-04-02T05:16:46.189Z,7.00
2023-04-02T05:20:09.966Z,7.17
2023-04-02T05:23:27.125Z,7.29
2023-04-02T05:26:37.623Z,7.36
2023-04-02T05:29:44.655Z,7.46
2023-04-02T05:33:01.277Z,7.51
2023-04-02T05:36:11.842Z,7.60
2023-04-02T05:39:24.787Z,7.81
2023-04-02T05:42:36.471Z,8.05
2023-04-02T05:45:54.885Z,8.34
2023-04-02T05:49:00.186Z,8.47
2023-04-02T05:52:06.961Z,8.60
2023-04-02T05:55:14.863Z,8.70
2023-04-02T05:58:36.335Z,8.77
2023-04-02T06:02:27.138Z,8.92
2023-04-02T06:05:38.136Z,9.26
2023-04-02T06:08:47.617Z,9.44
2023-04-02T06:12:24.529Z,9.37
2023-04-02T06:15:31.848Z,9.22
2023-04-02T06:18:40.808Z,9.18
2023-04-02T06:21:49.774Z,9.24
2023-04-02T06:25:12.096Z,9.32
2023-04-02T06:28:21.544Z,9.42
2023-04-02T06:31:52.422Z,9.67
2023-04-02T06:34:56.296Z,9.79
2023-04-02T06:38:06.989Z,10.05
2023-04-02T06:41:19.917Z,10.34
2023-04-02T06:44:38.130Z,10.48
2023-04-02T06:47:57.288Z,10.48
2023-04-02T06:51:18.277Z,10.63
2023-04-02T06:54:23.149Z,10.66
2023-04-02T06:57:32.891Z,10.56
2023-04-02T07:00:39.234Z,10.59
2023-04-02T07:03:43.276Z,10.73
2023-04-02T07:06:54.632Z,10.70
2023-04-02T07:09:59.311Z,10.70
2023-04-02T07:13:04.006Z,10.83
2023-04-02T07:16:06.555Z,11.14
2023-04-02T07:19:19.239Z,11.43
2023-04-02T07:22:22.317Z,11.72
2023-04-02T07:25:35.133Z,11.95
2023-04-02T07:28:37.234Z,12.17
2023-04-02T07:31:41.768Z,12.36
2023-04-02T07:34:43.598Z,12.47
2023-04-02T07:37:45.800Z,12.46
2023-04-02T07:40:50.457Z,12.44
2023-04-02T07:43:54.851Z,12.25
2023-04-02T07:46:56.690Z,12.23
2023-04-02T07:49:58.647Z,12.25
2023-04-02T07:53:01.147Z,12.20
2023-04-02T07:56:04.830Z,12.43
2023-04-02T07:59:06.953Z,12.51
2023-04-02T08:02:20.326Z,12.78
2023-04-02T08:05:22.672Z,13.02
2023-04-02T08:08:25.564Z,12.96
2023-04-02T08:11:27.783Z,12.91
2023-04-02T08:14:32.735Z,12.84
2023-04-02T08:17:34.863Z,12.86
2023-04-02T08:20:37.147Z,13.00
2023-04-02T08:23:39.083Z,13.21
2023-04-02T08:26:41.712Z,13.22
2023-04-02T08:29:44.454Z,13.29
2023-04-02T08:32:46.417Z,13.63
2023-04-02T08:35:49.393Z,13.88
2023-04-02T08:38:51.321Z,14.19
2023-04-02T08:41:53.128Z,14.28
2023-04-02T08:45:23.576Z,14.41
2023-04-02T08:48:28.070Z,14.62
2023-04-02T08:51:36.514Z,14.69
2023-04-02T08:54:38.480Z,14.49
2023-04-02T08:57:50.533Z,14.38
2023-04-02T09:00:55.991Z,14.60
2023-04-02T09:03:59.617Z,14.80
2023-04-02T09:07:01.805Z,14.67
2023-04-02T09:10:04.501Z,14.57
2023-04-02T09:13:13.926Z,14.28
2023-04-02T09:16:22.601Z,14.28
2023-04-02T09:19:44.661Z,14.34
2023-04-02T09:22:48.694Z,14.20
2023-04-02T09:26:03.680Z,14.09
2023-04-02T09:29:12.658Z,14.16
2023-04-02T09:32:22.320Z,14.32
2023-04-02T09:35:32.433Z,14.51
2023-04-02T09:38:35.521Z,14.81
2023-04-02T09:41:37.539Z,14.80
2023-04-02T09:44:39.405Z,14.80
2023-04-02T09:47:42.484Z,14.74
2023-04-02T09:50:44.501Z,14.68
2023-04-02T09:54:07.573Z,14.68
2023-04-02T09:57:28.163Z,15.02
2023-04-02T10:00:32.421Z,15.53
2023-04-02T10:03:35.077Z,15.77
2023-04-02T10:06:37.564Z,15.88
2023-04-02T10:09:48.569Z,15.66
2023-04-02T10:13:00.250Z,15.41
2023-04-02T10:16:07.517Z,15.30
2023-04-02T10:19:33.364Z,15.34
2023-04-02T10:22:35.234Z,15.07
2023-04-02T10:25:50.607Z,14.83
2023-04-02T10:29:12.843Z,14.95
2023-04-02T10:32:34.959Z,14.85
2023-04-02T10:35:43.233Z,14.97
2023-04-02T10:39:30.066Z,14.80
2023-04-02T10:42:42.373Z,14.59
2023-04-02T10:45:54.758Z,14.25
2023-04-02T10:49:15.580Z,14.06
2023-04-02T10:52:33.703Z,13.95
2023-04-02T10:55:43.276Z,13.84
2023-04-02T10:59:05.551Z,13.76
2023-04-02T11:02:38.969Z,13.74
2023-04-02T11:05:50.489Z,13.45
2023-04-02T11:08:58.860Z,13.26
2023-04-02T11:12:03.567Z,13.14
2023-04-02T11:15:19.829Z,13.09
2023-04-02T11:18:37.572Z,13.12
2023-04-02T11:21:54.931Z,13.21
2023-04-02T11:24:58.565Z,13.15
2023-04-02T11:28:27.222Z,13.13
2023-04-02T11:31:31.517Z,13.20
2023-04-02T11:34:42.980Z,13.13
2023-04-02T11:37:46.185Z,13.11
2023-04-02T11:40:55.197Z,13.12
2023-04-02T11:44:01.615Z,13.15
2023-04-02T11:47:26.746Z,13.23
2023-04-02T11:50:28.769Z,13.28
2023-04-02T11:53:34.545Z,13.33
2023-04-02T11:56:49.121Z,13.34
2023-04-02T12:00:18.495Z,13.31
2023-04-02T12:03:56.701Z,13.37
2023-04-02T12:07:18.463Z,13.42
2023-04-02T12:10:23.332Z,13.42
2023-04-02T12:13:40.605Z,13.46
2023-04-02T12:16:42.676Z,13.51
2023-04-02T12:19:53.730Z,13.56
2023-04-02T12:22:58.707Z,13.71
2023-04-02T12:26:08.954Z,13.68
2023-04-02T12:29:27.429Z,13.73
2023-04-02T12:32:33.493Z,13.82
2023-04-02T12:35:36.563Z,13.94
2023-04-02T12:38:53.877Z,14.04
2023-04-02T12:41:56.507Z,14.04
2023-04-02T12:44:58.903Z,13.84
2023-04-02T12:48:09.114Z,13.67
2023-04-02T12:51:11.341Z,13.66
2023-04-02T12:54:18.552Z,13.55
2023-04-02T12:57:26.465Z,13.57
2023-04-02T13:00:31.167Z,13.57
2023-04-02T13:03:40.713Z,13.55
2023-04-02T13:06:52.150Z,13.53
2023-04-02T13:09:57.026Z,13.54
2023-04-02T13:13:01.623Z,13.57
2023-04-02T13:16:07.552Z,13.60
2023-04-02T13:19:33.683Z,13.56
2023-04-02T13:22:35.753Z,13.44
2023-04-02T13:25:37.756Z,13.35
2023-04-02T13:28:39.691Z,13.31
2023-04-02T13:31:41.741Z,13.36
2023-04-02T13:34:43.760Z,13.29
2023-04-02T13:37:47.809Z,13.34
2023-04-02T13:40:49.704Z,13.28
2023-04-02T13:43:53.011Z,13.29
2023-04-02T13:46:57.725Z,13.38
2023-04-02T13:49:59.533Z,13.37
2023-04-02T13:53:09.700Z,13.34
2023-04-02T13:56:14.827Z,13.34
2023-04-02T13:59:16.785Z,13.32
2023-04-02T14:02:25.528Z,13.37
2023-04-02T14:05:46.903Z,13.47
2023-04-02T14:08:48.683Z,13.47
2023-04-02T14:12:04.735Z,13.48
2023-04-02T14:15:41.137Z,13.41
2023-04-02T14:19:01.700Z,13.41
2023-04-02T14:22:14.741Z,13.40
2023-04-02T14:25:37.709Z,13.40
2023-04-02T14:29:10.546Z,13.40
2023-04-02T14:32:21.035Z,13.36
2023-04-02T14:35:36.651Z,13.33
2023-04-02T14:38:44.954Z,13.31
2023-04-02T14:41:57.092Z,13.32
2023-04-02T14:45:12.717Z,13.30
2023-04-02T14:48:21.443Z,13.28
2023-04-02T14:51:33.346Z,13.18
2023-04-02T14:54:45.460Z,13.26
2023-04-02T14:57:53.633Z,13.20
2023-04-02T15:01:00.734Z,13.20
2023-04-02T15:04:12.825Z,13.17
2023-04-02T15:07:22.243Z,13.13
2023-04-02T15:10:52.348Z,13.09
2023-04-02T15:14:05.417Z,13.07
2023-04-02T15:17:11.433Z,13.05
2023-04-02T15:20:16.159Z,13.02
2023-04-02T15:23:31.217Z,13.00
2023-04-02T15:26:48.411Z,12.97
2023-04-02T15:29:51.301Z,12.89
2023-04-02T15:32:59.799Z,12.87
2023-04-02T15:36:19.971Z,12.88
2023-04-02T15:39:21.921Z,12.80
2023-04-02T15:42:33.172Z,12.78
2023-04-02T15:45:53.613Z,12.69
2023-04-02T15:49:20.449Z,12.68
2023-04-02T15:52:50.117Z,12.60
2023-04-02T15:56:23.049Z,12.55
2023-04-02T15:59:47.324Z,12.48
2023-04-02T16:03:02.674Z,12.47
2023-04-02T16:06:25.443Z,12.41
2023-04-02T16:09:30.942Z,12.37
2023-04-02T16:12:34.947Z,12.35
2023-04-02T16:15:46.141Z,12.36
2023-04-02T16:18:56.862Z,12.32
2023-04-02T16:22:05.670Z,12.34
2023-04-02T16:25:16.550Z,12.31
2023-04-02T16:28:22.977Z,12.29
2023-04-02T16:31:57.766Z,12.28
2023-04-02T16:38:54.902Z,12.12
2023-04-02T16:42:11.704Z,12.09
2023-04-02T16:45:19.726Z,12.04
2023-04-02T16:48:42.786Z,12.01
2023-04-02T16:52:04.940Z,11.97
2023-04-02T16:55:32.867Z,11.95
2023-04-02T16:58:43.816Z,11.90
2023-04-02T17:01:59.840Z,11.80
2023-04-02T17:05:29.459Z,11.72
2023-04-02T17:08:42.000Z,11.63
2023-04-02T17:12:01.290Z,11.56
2023-04-02T17:15:26.620Z,11.53
2023-04-02T17:18:34.028Z,11.46
2023-04-02T17:21:36.085Z,11.40
2023-04-02T17:25:04.746Z,11.34
2023-04-02T17:28:15.069Z,11.30
2023-04-02T17:31:30.943Z,11.26
2023-04-02T17:34:33.090Z,11.23
2023-04-02T17:38:00.394Z,11.20
2023-04-02T17:41:17.663Z,11.16
2023-04-02T17:44:42.755Z,11.22
2023-04-02T17:47:47.227Z,11.20
2023-04-02T17:51:11.594Z,11.17
2023-04-02T17:54:37.172Z,11.12
2023-04-02T17:58:11.269Z,11.15
2023-04-02T18:01:34.823Z,11.11
2023-04-02T18:04:58.267Z,11.12
2023-04-02T18:08:45.683Z,11.10
2023-04-02T18:12:29.535Z,11.05
2023-04-02T18:16:01.436Z,11.08
2023-04-02T18:19:12.030Z,11.07
2023-04-02T18:22:37.511Z,11.06
2023-04-02T18:25:50.430Z,11.07
2023-04-02T18:28:58.017Z,11.06
2023-04-02T18:32:27.368Z,11.06
2023-04-02T18:35:35.778Z,10.97
2023-04-02T18:38:54.025Z,10.97
2023-04-02T18:42:19.081Z,10.89
2023-04-02T18:45:35.493Z,10.88
2023-04-02T18:48:52.079Z,10.83
2023-04-02T18:52:11.323Z,10.83
2023-04-02T18:55:20.995Z,10.79
2023-04-02T18:58:29.828Z,10.67
2023-04-02T19:05:02.883Z,10.50
2023-04-02T19:08:28.815Z,10.36
2023-04-02T19:11:31.638Z,10.36
2023-04-02T19:14:33.453Z,10.33
2023-04-02T19:17:45.067Z,10.29
2023-04-02T19:20:56.259Z,10.19
2023-04-02T19:24:16.449Z,10.10
2023-04-02T19:27:28.811Z,10.07
2023-04-02T19:30:49.966Z,9.98
2023-04-02T19:34:06.791Z,9.94
2023-04-02T19:37:13.778Z,9.82
2023-04-02T19:40:33.604Z,9.75
2023-04-02T19:43:38.676Z,9.58
2023-04-02T19:46:42.692Z,9.52
2023-04-02T19:49:45.058Z,9.38
2023-04-02T19:52:46.995Z,9.24
2023-04-02T19:55:51.015Z,9.15
2023-04-02T19:58:52.932Z,9.10
2023-04-02T20:01:54.845Z,8.95
2023-04-02T20:04:56.703Z,8.93
2023-04-02T20:08:00.136Z,8.89
2023-04-02T20:11:05.938Z,8.81
2023-04-02T20:14:07.839Z,8.76
2023-04-02T20:17:12.376Z,8.72
2023-04-02T20:20:16.983Z,8.67
2023-04-02T20:23:19.137Z,8.62
2023-04-02T20:26:23.377Z,8.61
2023-04-02T20:29:28.124Z,8.48
2023-04-02T20:32:30.187Z,8.52
2023-04-02T20:35:34.592Z,8.52
2023-04-02T20:38:39.872Z,8.46
2023-04-02T20:41:44.447Z,8.43
2023-04-02T20:44:46.438Z,8.39
2023-04-02T20:47:56.060Z,8.39
2023-04-02T20:50:59.821Z,8.34
2023-04-02T20:54:01.918Z,8.31
2023-04-02T20:57:05.365Z,8.27
2023-04-02T21:00:08.333Z,8.25
2023-04-02T21:03:10.427Z,8.21
2023-04-02T21:06:14.315Z,8.18
2023-04-02T21:09:19.594Z,8.20
2023-04-02T21:12:21.541Z,8.10
2023-04-02T21:15:23.430Z,8.07
2023-04-02T21:18:26.188Z,8.07
2023-04-02T21:21:28.809Z,8.04
2023-04-02T21:24:30.754Z,8.02
2023-04-02T21:27:32.624Z,7.96
2023-04-02T21:30:34.485Z,7.95
2023-04-02T21:33:39.437Z,7.96
2023-04-02T21:36:45.639Z,7.97
2023-04-02T21:39:47.433Z,7.91
2023-04-02T21:42:52.929Z,7.92
2023-04-02T21:46:02.028Z,7.87
2023-04-02T21:49:05.370Z,7.76
2023-04-02T21:52:07.366Z,7.80
2023-04-02T21:55:09.450Z,7.80
2023-04-02T21:58:11.309Z,7.77
2023-04-02T22:01:24.342Z,7.75
2023-04-02T22:04:30.758Z,7.77
2023-04-02T22:07:32.746Z,7.79
2023-04-02T22:10:44.079Z,7.81
2023-04-02T22:13:48.067Z,7.84
2023-04-02T22:16:50.164Z,7.83
2023-04-02T22:19:54.656Z,7.83
2023-04-02T22:22:56.625Z,7.85
2023-04-02T22:25:59.818Z,7.89
2023-04-02T22:29:02.948Z,7.89
2023-04-02T22:32:04.939Z,7.88
2023-04-02T22:35:09.339Z,7.83
2023-04-02T22:38:11.314Z,7.82
2023-04-02T22:41:16.208Z,7.82
2023-04-02T22:44:18.065Z,7.81
2023-04-02T22:47:19.882Z,7.81
2023-04-02T22:50:24.751Z,7.84
2023-04-02T22:53:26.637Z,7.84
2023-04-02T22:56:32.070Z,7.84
2023-04-02T22:59:34.261Z,7.86
2023-04-02T23:02:36.257Z,7.84
2023-04-02T23:05:38.217Z,7.84
2023-04-02T23:08:40.934Z,7.83
2023-04-02T23:11:45.174Z,7.82
2023-04-02T23:14:47.509Z,7.87
2023-04-02T23:17:49.461Z,7.85
2023-04-02T23:20:54.369Z,7.88
2023-04-02T23:23:56.388Z,7.85
2023-04-02T23:26:58.315Z,7.86
2023-04-02T23:30:00.168Z,7.85
2023-04-02T23:33:03.579Z,7.85
2023-04-02T23:36:10.873Z,7.80
2023-04-02T23:39:13.996Z,7.79
2023-04-02T23:42:16.148Z,7.79
2023-04-02T23:45:20.272Z,7.77
2023-04-02T23:48:22.147Z,7.73
2023-04-02T23:51:24.845Z,7.69
2023-04-02T23:54:26.890Z,7.66
2023-04-02T23:57:28.743Z,7.61
